Time;durP1;ratioP1;P1;durP2;ratioP2;P2;SDS_P1;SDS_P2;PMS_P1;PMS_P2;Temp;Humidity;BMP_temperature;BMP_pressure;BME280_temperature;BME280_humidity;BME280_pressure;Samples;Min_cycle;Max_cycle;Signal;HPM_P1;HPM_P2
2023/01/27 00:02:08;;;;;;;2.07;1.87;;;;;;;;;;7386910;19;20140;-60
2023/01/27 00:04:34;;;;;;;1.93;1.83;;;;;;;;;;7384469;19;20637;-60
2023/01/27 00:06:59;;;;;;;3.23;2.07;;;;;;;;;;7388676;19;20147;-60
2023/01/27 00:09:24;;;;;;;1.33;1.23;;;;;;;;;;7384876;19;20690;-60
2023/01/27 00:14:34;;;;;;;2.50;1.70;;;;;;;;;;7388000;19;20178;-60
2023/01/27 00:16:59;;;;;;;1.73;1.40;;;;;;;;;;7390362;19;20117;-60
2023/01/27 00:19:25;;;;;;;1.83;1.73;;;;;;;;;;7387587;19;20105;-60
2023/01/27 00:24:35;;;;;;;1.23;1.23;;;;;;;;;;7370791;19;22098;-60
2023/01/27 00:27:01;;;;;;;1.93;1.17;;;;;;;;;;7376974;19;20466;-60
2023/01/27 00:29:26;;;;;;;1.90;1.77;;;;;;;;;;7368349;19;20196;-60
2023/01/27 00:34:36;;;;;;;1.70;1.27;;;;;;;;;;7374636;19;20144;-61
2023/01/27 00:37:01;;;;;;;6.17;2.63;;;;;;;;;;7374629;19;20125;-60
2023/01/27 00:39:26;;;;;;;0.30;0.30;;;;;;;;;;7367954;19;20805;-60
2023/01/27 00:41:51;;;;;;;1.00;1.00;;;;;;;;;;7364334;19;20630;-59
2023/01/27 00:44:17;;;;;;;1.03;1.03;;;;;;;;;;7378139;19;20204;-60
2023/01/27 00:46:42;;;;;;;1.87;1.77;;;;;;;;;;7369386;19;20113;-60
2023/01/27 00:49:09;;;;;;;1.07;1.07;;;;;;;;;;7374084;19;20137;-60
2023/01/27 00:51:35;;;;;;;2.63;1.13;;;;;;;;;;7383089;19;20123;-60
2023/01/27 00:54:01;;;;;;;6.47;1.40;;;;;;;;;;7388002;19;20148;-60
2023/01/27 00:56:27;;;;;;;3.93;1.30;;;;;;;;;;7387049;19;20120;-60
2023/01/27 00:58:52;;;;;;;1.67;1.57;;;;;;;;;;7387827;19;20498;-60
2023/01/27 01:01:18;;;;;;;1.43;1.03;;;;;;;;;;7384804;19;20109;-60
2023/01/27 01:03:43;;;;;;;1.30;1.23;;;;;;;;;;7388947;19;20149;-60
2023/01/27 01:06:11;;;;;;;1.33;1.20;;;;;;;;;;7383552;19;20618;-60
2023/01/27 01:08:37;;;;;;;0.83;0.83;;;;;;;;;;7389416;19;21025;-60
2023/01/27 01:11:04;;;;;;;1.40;1.30;;;;;;;;;;7387777;19;20127;-60
2023/01/27 01:13:29;;;;;;;1.40;1.33;;;;;;;;;;7388292;19;20121;-60
2023/01/27 01:15:54;;;;;;;0.97;0.97;;;;;;;;;;7386255;19;20113;-60
2023/01/27 01:18:20;;;;;;;1.00;1.00;;;;;;;;;;7385508;19;20113;-60
2023/01/27 01:20:46;;;;;;;3.10;2.37;;;;;;;;;;7386286;19;20584;-60
2023/01/27 01:23:12;;;;;;;2.10;1.27;;;;;;;;;;7370523;19;20131;-60
2023/01/27 01:25:38;;;;;;;0.80;0.80;;;;;;;;;;7347842;19;20674;-60
2023/01/27 01:28:04;;;;;;;0.87;0.77;;;;;;;;;;7359671;19;20127;-60
2023/01/27 01:30:30;;;;;;;1.50;1.40;;;;;;;;;;7369351;19;20177;-60
2023/01/27 01:32:56;;;;;;;0.93;0.93;;;;;;;;;;7366781;19;20224;-60
2023/01/27 01:35:24;;;;;;;1.23;1.20;;;;;;;;;;7370000;19;20623;-59
2023/01/27 01:37:49;;;;;;;1.83;1.73;;;;;;;;;;7378214;19;20128;-60
2023/01/27 01:40:15;;;;;;;0.97;0.80;;;;;;;;;;7380562;19;20125;-60
2023/01/27 01:42:52;;;;;;;0.80;0.80;;;;;;;;;;7381199;19;20120;-60
2023/01/27 01:45:35;;;;;;;1.20;1.20;;;;;;;;;;7377217;19;20175;-60
2023/01/27 01:48:10;;;;;;;1.87;1.53;;;;;;;;;;7377850;19;20121;-60
2023/01/27 01:50:39;;;;;;;1.37;1.37;;;;;;;;;;7381741;19;20192;-59
2023/01/27 01:53:05;;;;;;;2.03;1.57;;;;;;;;;;7370927;19;20121;-60
2023/01/27 01:55:33;;;;;;;0.67;0.67;;;;;;;;;;7378560;19;20167;-60
2023/01/27 01:57:59;;;;;;;0.90;0.90;;;;;;;;;;7388597;19;20137;-60
2023/01/27 02:00:24;;;;;;;1.37;1.27;;;;;;;;;;7383065;19;20121;-59
2023/01/27 02:02:50;;;;;;;0.77;0.77;;;;;;;;;;7386695;19;20109;-59
2023/01/27 02:05:36;;;;;;;0.70;0.70;;;;;;;;;;7370137;19;20621;-59
2023/01/27 02:08:20;;;;;;;1.20;1.00;;;;;;;;;;7381656;19;20229;-59
2023/01/27 02:10:46;;;;;;;0.70;0.70;;;;;;;;;;7381033;19;20221;-59
2023/01/27 02:13:11;;;;;;;1.80;1.17;;;;;;;;;;7380939;19;20445;-59
2023/01/27 02:15:37;;;;;;;0.80;0.80;;;;;;;;;;7360799;19;20496;-58
2023/01/27 02:18:03;;;;;;;1.20;1.10;;;;;;;;;;7381095;19;20125;-59
2023/01/27 02:20:44;;;;;;;1.30;1.20;;;;;;;;;;7384578;19;20588;-59
2023/01/27 02:23:18;;;;;;;1.07;0.97;;;;;;;;;;7372980;19;20141;-59
2023/01/27 02:25:47;;;;;;;0.63;0.63;;;;;;;;;;7365264;19;20756;-59
2023/01/27 02:28:12;;;;;;;0.73;0.73;;;;;;;;;;7378922;19;20159;-58
2023/01/27 02:30:38;;;;;;;3.90;1.33;;;;;;;;;;7378701;19;20129;-59
2023/01/27 02:33:10;;;;;;;1.07;0.97;;;;;;;;;;7381793;19;20446;-59
2023/01/27 02:35:40;;;;;;;2.70;1.17;;;;;;;;;;7373728;19;20185;-59
2023/01/27 02:38:06;;;;;;;0.47;0.47;;;;;;;;;;7379085;19;20173;-59
2023/01/27 02:40:32;;;;;;;1.90;0.77;;;;;;;;;;7380571;19;20117;-59
2023/01/27 02:42:58;;;;;;;1.50;1.17;;;;;;;;;;7376369;19;20148;-59
2023/01/27 02:45:24;;;;;;;1.57;1.50;;;;;;;;;;7371334;19;20133;-59
2023/01/27 02:47:49;;;;;;;0.73;0.73;;;;;;;;;;7372875;19;20125;-59
2023/01/27 02:50:15;;;;;;;0.60;0.60;;;;;;;;;;7375298;19;20493;-59
2023/01/27 02:52:41;;;;;;;0.50;0.50;;;;;;;;;;7394666;19;20152;-59
2023/01/27 02:55:06;;;;;;;0.70;0.70;;;;;;;;;;7386579;19;20140;-61
2023/01/27 02:57:32;;;;;;;1.37;1.27;;;;;;;;;;7381665;19;20149;-59
2023/01/27 02:59:57;;;;;;;0.80;0.80;;;;;;;;;;7374484;19;20623;-59
2023/01/27 03:02:29;;;;;;;0.90;0.90;;;;;;;;;;7390247;19;20125;-59
2023/01/27 03:04:57;;;;;;;0.77;0.77;;;;;;;;;;7371831;19;20144;-59
2023/01/27 03:07:22;;;;;;;0.60;0.60;;;;;;;;;;7367485;19;20161;-59
2023/01/27 03:09:48;;;;;;;1.33;1.23;;;;;;;;;;7382674;19;20562;-59
2023/01/27 03:12:19;;;;;;;1.47;0.90;;;;;;;;;;7387204;19;20124;-59
2023/01/27 03:20:13;;;;;;;1.23;1.00;;;;;;;;;;7393890;19;20151;-59
2023/01/27 03:22:38;;;;;;;1.03;0.80;;;;;;;;;;7388142;19;20634;-59
2023/01/27 03:25:04;;;;;;;1.23;1.20;;;;;;;;;;7392201;19;20145;-59
2023/01/27 03:27:30;;;;;;;0.77;0.77;;;;;;;;;;7394013;19;20220;-59
2023/01/27 03:29:55;;;;;;;0.70;0.70;;;;;;;;;;7391661;19;20473;-59
2023/01/27 03:32:26;;;;;;;1.20;1.13;;;;;;;;;;7393070;19;20141;-59
2023/01/27 03:34:51;;;;;;;1.30;1.03;;;;;;;;;;7389412;19;20150;-59
2023/01/27 03:48:13;;;;;;;1.80;1.70;;;;;;;;;;7380039;19;20152;-59
2023/01/27 03:50:42;;;;;;;1.90;0.93;;;;;;;;;;7375611;19;20125;-59
2023/01/27 03:53:08;;;;;;;1.90;1.17;;;;;;;;;;7380384;19;20133;-59
2023/01/27 03:55:35;;;;;;;1.00;1.00;;;;;;;;;;7368901;19;20152;-59
2023/01/27 03:58:13;;;;;;;0.97;0.90;;;;;;;;;;7384774;19;20594;-59
2023/01/27 04:00:38;;;;;;;0.50;0.50;;;;;;;;;;7377160;19;20112;-59
2023/01/27 04:08:31;;;;;;;1.03;0.97;;;;;;;;;;7372451;19;21652;-60
2023/01/27 04:13:47;;;;;;;0.93;0.93;;;;;;;;;;7381086;19;20156;-59
2023/01/27 04:16:13;;;;;;;0.53;0.53;;;;;;;;;;7382448;19;20134;-59
2023/01/27 04:18:38;;;;;;;0.87;0.87;;;;;;;;;;7384085;19;20113;-59
2023/01/27 04:21:03;;;;;;;1.70;1.10;;;;;;;;;;7380763;19;20125;-59
2023/01/27 04:23:29;;;;;;;1.20;1.07;;;;;;;;;;7371276;19;20149;-59
2023/01/27 04:25:55;;;;;;;0.80;0.80;;;;;;;;;;7380210;19;20121;-59
2023/01/27 04:28:21;;;;;;;2.67;0.70;;;;;;;;;;7378023;19;20149;-59
2023/01/27 04:30:46;;;;;;;0.87;0.87;;;;;;;;;;7372884;19;20129;-58
2023/01/27 04:33:14;;;;;;;1.30;1.07;;;;;;;;;;7375079;19;20172;-59
2023/01/27 04:35:43;;;;;;;0.90;0.90;;;;;;;;;;7364025;19;20484;-59
2023/01/27 04:38:09;;;;;;;0.77;0.77;;;;;;;;;;7366526;19;20606;-59
2023/01/27 04:40:34;;;;;;;2.63;1.27;;;;;;;;;;7367597;19;20121;-59
2023/01/27 04:42:59;;;;;;;0.80;0.63;;;;;;;;;;7379634;19;20133;-58
2023/01/27 04:45:24;;;;;;;1.43;1.20;;;;;;;;;;7376356;19;20499;-59
2023/01/27 04:47:50;;;;;;;1.40;1.30;;;;;;;;;;7367683;19;20121;-58
2023/01/27 04:50:15;;;;;;;1.47;0.80;;;;;;;;;;7374779;19;20129;-59
2023/01/27 04:52:41;;;;;;;1.20;1.17;;;;;;;;;;7380806;19;20148;-59
2023/01/27 04:55:06;;;;;;;0.83;0.80;;;;;;;;;;7378754;19;20687;-59
2023/01/27 04:57:31;;;;;;;0.70;0.70;;;;;;;;;;7371757;19;20152;-58
2023/01/27 04:59:57;;;;;;;1.00;1.00;;;;;;;;;;7376892;19;20655;-59
2023/01/27 05:02:22;;;;;;;0.70;0.70;;;;;;;;;;7388223;19;20201;-59
2023/01/27 05:04:47;;;;;;;0.93;0.93;;;;;;;;;;7388020;19;20177;-59
2023/01/27 05:07:13;;;;;;;1.77;1.67;;;;;;;;;;7389656;19;20462;-58
2023/01/27 05:09:38;;;;;;;1.60;1.50;;;;;;;;;;7389884;19;20534;-59
2023/01/27 05:12:04;;;;;;;1.10;1.03;;;;;;;;;;7389914;19;20117;-60
2023/01/27 05:14:29;;;;;;;1.43;1.33;;;;;;;;;;7380897;19;20172;-59
2023/01/27 05:16:55;;;;;;;1.20;1.13;;;;;;;;;;7387854;19;20141;-59
2023/01/27 05:19:20;;;;;;;1.33;1.27;;;;;;;;;;7386958;19;20218;-59
2023/01/27 05:21:45;;;;;;;1.87;1.70;;;;;;;;;;7389228;19;20117;-59
2023/01/27 05:24:11;;;;;;;1.20;1.10;;;;;;;;;;7382687;19;20683;-59
2023/01/27 05:26:36;;;;;;;1.07;1.07;;;;;;;;;;7388080;19;20171;-59
2023/01/27 05:29:01;;;;;;;0.80;0.80;;;;;;;;;;7387988;19;20137;-59
2023/01/27 05:31:30;;;;;;;0.80;0.80;;;;;;;;;;7384179;19;20516;-59
2023/01/27 05:33:57;;;;;;;0.63;0.63;;;;;;;;;;7386911;19;20137;-59
2023/01/27 05:36:24;;;;;;;2.03;1.93;;;;;;;;;;7385649;19;20607;-59
2023/01/27 05:38:49;;;;;;;0.50;0.50;;;;;;;;;;7385772;19;20138;-61
2023/01/27 05:41:16;;;;;;;0.73;0.73;;;;;;;;;;7380793;19;20133;-59
2023/01/27 05:43:42;;;;;;;1.37;1.27;;;;;;;;;;7383144;19;20129;-59
2023/01/27 05:46:15;;;;;;;1.33;1.23;;;;;;;;;;7388267;19;20145;-59
2023/01/27 05:48:43;;;;;;;0.70;0.70;;;;;;;;;;7377471;19;20543;-59
2023/01/27 05:51:08;;;;;;;1.60;1.50;;;;;;;;;;7380677;19;20145;-59
2023/01/27 05:53:35;;;;;;;1.30;1.23;;;;;;;;;;7387011;19;20188;-60
2023/01/27 17:55:19;;;;;;;1.20;1.10;;;;;;;;;;7374547;19;20196;-60
2023/01/27 17:57:45;;;;;;;1.80;1.40;;;;;;;;;;7382244;19;20129;-59
2023/01/27 18:00:22;;;;;;;0.70;0.70;;;;;;;;;;7374071;19;20129;-60
2023/01/27 18:02:52;;;;;;;0.97;0.90;;;;;;;;;;7383788;19;20615;-60
2023/01/27 18:05:20;;;;;;;0.80;0.80;;;;;;;;;;7376940;19;20149;-60
2023/01/27 18:07:46;;;;;;;1.07;1.07;;;;;;;;;;7381865;19;20125;-60
2023/01/27 18:10:22;;;;;;;0.93;0.83;;;;;;;;;;7374310;19;20498;-60
2023/01/27 18:12:47;;;;;;;0.57;0.57;;;;;;;;;;7382857;19;20535;-60
2023/01/27 18:15:39;;;;;;;0.53;0.53;;;;;;;;;;7358577;19;20689;-59
2023/01/27 18:18:17;;;;;;;0.87;0.87;;;;;;;;;;7387630;19;20125;-59
2023/01/27 18:20:43;;;;;;;0.70;0.70;;;;;;;;;;7371028;19;20484;-60
2023/01/27 18:23:15;;;;;;;0.80;0.80;;;;;;;;;;7358099;19;20141;-59
2023/01/27 18:25:48;;;;;;;0.87;0.67;;;;;;;;;;7341715;19;20166;-59
2023/01/27 18:28:14;;;;;;;3.23;1.50;;;;;;;;;;7360016;19;20203;-59
2023/01/27 18:30:48;;;;;;;0.90;0.90;;;;;;;;;;7348651;19;20613;-60
2023/01/27 18:33:14;;;;;;;0.97;0.97;;;;;;;;;;7352832;19;20129;-59
2023/01/27 18:35:40;;;;;;;0.80;0.80;;;;;;;;;;7367736;19;20176;-59
2023/01/27 18:38:21;;;;;;;1.33;0.80;;;;;;;;;;7357512;19;20134;-61
2023/01/27 18:40:46;;;;;;;1.53;1.07;;;;;;;;;;7360751;19;20486;-60
2023/01/27 18:43:12;;;;;;;1.00;1.00;;;;;;;;;;7374068;19;20133;-59
2023/01/27 18:45:37;;;;;;;2.17;0.70;;;;;;;;;;7369292;19;20137;-60
2023/01/27 18:48:09;;;;;;;0.83;0.83;;;;;;;;;;7362978;19;20188;-60
2023/01/27 18:50:39;;;;;;;2.23;1.07;;;;;;;;;;7367119;19;20741;-59
2023/01/27 18:53:19;;;;;;;0.80;0.80;;;;;;;;;;7349308;19;20166;-60
2023/01/27 18:55:44;;;;;;;1.47;1.37;;;;;;;;;;7360195;19;20145;-59
2023/01/27 18:58:12;;;;;;;0.67;0.67;;;;;;;;;;7363017;19;20125;-59
2023/01/27 19:00:44;;;;;;;1.47;0.70;;;;;;;;;;7368824;19;20144;-59
2023/01/27 19:03:24;;;;;;;1.03;0.70;;;;;;;;;;7384576;19;20137;-59
2023/01/27 19:05:50;;;;;;;1.97;0.80;;;;;;;;;;7353115;19;20575;-59
2023/01/27 19:08:17;;;;;;;0.93;0.93;;;;;;;;;;7366196;19;20131;-59
2023/01/27 19:10:43;;;;;;;1.13;1.07;;;;;;;;;;7368657;19;20467;-60
2023/01/27 19:13:09;;;;;;;1.00;1.00;;;;;;;;;;7354016;19;20127;-59
2023/01/27 19:15:40;;;;;;;0.80;0.80;;;;;;;;;;7362886;19;20228;-60
2023/01/27 19:18:14;;;;;;;2.27;1.27;;;;;;;;;;7337496;19;20129;-59
2023/01/27 19:20:40;;;;;;;0.70;0.70;;;;;;;;;;7359495;19;20137;-59
2023/01/27 19:23:11;;;;;;;0.70;0.70;;;;;;;;;;7358839;19;20125;-59
2023/01/27 19:25:37;;;;;;;1.67;1.20;;;;;;;;;;7372589;19;20149;-59
2023/01/27 19:28:04;;;;;;;1.53;1.43;;;;;;;;;;7357311;19;20819;-58
2023/01/27 19:30:34;;;;;;;0.60;0.60;;;;;;;;;;7356116;19;20129;-59
2023/01/27 19:33:00;;;;;;;1.03;1.00;;;;;;;;;;7342686;19;20120;-59
2023/01/27 19:35:30;;;;;;;0.60;0.60;;;;;;;;;;7345582;19;20748;-59
2023/01/27 19:37:55;;;;;;;0.80;0.80;;;;;;;;;;7358634;19;20117;-60
2023/01/27 19:40:23;;;;;;;0.50;0.50;;;;;;;;;;7376255;19;20494;-60
2023/01/27 19:42:49;;;;;;;1.47;1.37;;;;;;;;;;7378615;19;20595;-59
2023/01/27 19:45:15;;;;;;;1.60;1.47;;;;;;;;;;7350116;19;20155;-60
2023/01/27 19:47:43;;;;;;;1.00;1.00;;;;;;;;;;7376368;19;20121;-59
2023/01/27 19:50:21;;;;;;;1.47;1.40;;;;;;;;;;7384541;19;20607;-60
2023/01/27 19:52:47;;;;;;;1.03;1.00;;;;;;;;;;7381823;19;20144;-59
2023/01/27 19:55:12;;;;;;;1.17;1.17;;;;;;;;;;7375481;19;20144;-59
2023/01/27 19:57:38;;;;;;;0.50;0.50;;;;;;;;;;7376641;19;20128;-60
2023/01/27 20:00:04;;;;;;;0.83;0.80;;;;;;;;;;7368512;19;20690;-59
2023/01/27 20:02:30;;;;;;;0.60;0.60;;;;;;;;;;7383500;19;20463;-59
2023/01/27 20:04:55;;;;;;;0.50;0.50;;;;;;;;;;7382653;19;20153;-60
2023/01/27 20:07:20;;;;;;;0.47;0.47;;;;;;;;;;7387668;19;20547;-59
2023/01/27 20:09:45;;;;;;;1.70;1.20;;;;;;;;;;7385661;19;20121;-59
2023/01/27 20:12:14;;;;;;;1.10;1.00;;;;;;;;;;7383333;19;20145;-59
2023/01/27 20:14:39;;;;;;;0.90;0.90;;;;;;;;;;7358785;19;20253;-60
2023/01/27 20:17:05;;;;;;;1.13;1.03;;;;;;;;;;7374889;19;21127;-59
2023/01/27 20:19:30;;;;;;;0.70;0.70;;;;;;;;;;7366938;19;20117;-59
2023/01/27 20:21:57;;;;;;;1.30;1.20;;;;;;;;;;7364291;19;20508;-59
2023/01/27 20:24:23;;;;;;;0.63;0.63;;;;;;;;;;7384966;19;20208;-59
2023/01/27 20:26:48;;;;;;;1.53;1.13;;;;;;;;;;7370410;19;20193;-59
2023/01/27 20:29:14;;;;;;;1.60;1.00;;;;;;;;;;7379086;19;20121;-60
2023/01/27 20:31:39;;;;;;;0.83;0.83;;;;;;;;;;7349077;19;20509;-60
2023/01/27 20:34:05;;;;;;;1.47;0.77;;;;;;;;;;7365952;19;20163;-59
2023/01/27 20:36:30;;;;;;;3.23;1.70;;;;;;;;;;7361318;19;20117;-59
2023/01/27 20:38:56;;;;;;;1.10;0.97;;;;;;;;;;7363587;19;20133;-59
2023/01/27 20:41:22;;;;;;;0.63;0.63;;;;;;;;;;7375237;19;20121;-60
2023/01/27 20:43:48;;;;;;;1.10;1.00;;;;;;;;;;7371340;19;22446;-59
2023/01/27 20:46:15;;;;;;;1.70;1.00;;;;;;;;;;7374232;19;20152;-59
2023/01/27 20:48:41;;;;;;;0.83;0.83;;;;;;;;;;7375852;19;20120;-59
2023/01/27 20:51:12;;;;;;;1.50;1.27;;;;;;;;;;7369392;19;20131;-60
2023/01/27 20:53:44;;;;;;;0.87;0.87;;;;;;;;;;7382106;19;20125;-59
2023/01/27 20:56:12;;;;;;;1.60;1.40;;;;;;;;;;7378406;19;20587;-59
2023/01/27 20:58:37;;;;;;;1.00;0.80;;;;;;;;;;7371013;19;20140;-59
2023/01/27 21:01:04;;;;;;;1.20;1.20;;;;;;;;;;7373728;19;20117;-59
2023/01/27 21:03:30;;;;;;;1.57;1.07;;;;;;;;;;7379683;19;20116;-59
2023/01/27 21:05:55;;;;;;;1.57;0.70;;;;;;;;;;7379593;19;20121;-59
2023/01/27 21:08:21;;;;;;;1.17;1.13;;;;;;;;;;7377987;19;20113;-59
2023/01/27 21:10:46;;;;;;;1.50;1.40;;;;;;;;;;7379831;19;20750;-60
2023/01/27 21:13:11;;;;;;;0.87;0.87;;;;;;;;;;7373992;19;20144;-59
2023/01/27 21:15:36;;;;;;;0.70;0.70;;;;;;;;;;7366048;19;20252;-60
2023/01/27 21:18:02;;;;;;;1.00;0.90;;;;;;;;;;7376617;19;20480;-60
2023/01/27 21:20:27;;;;;;;1.07;1.07;;;;;;;;;;7380223;19;20126;-60
2023/01/27 21:22:52;;;;;;;0.73;0.73;;;;;;;;;;7373595;19;20192;-59
2023/01/27 21:25:18;;;;;;;1.33;1.23;;;;;;;;;;7373392;19;20581;-59
2023/01/27 21:27:43;;;;;;;1.00;1.00;;;;;;;;;;7370716;19;20648;-59
2023/01/27 21:30:11;;;;;;;0.97;0.97;;;;;;;;;;7380358;19;20113;-59
2023/01/27 21:32:36;;;;;;;0.87;0.87;;;;;;;;;;7370073;19;20144;-59
2023/01/27 21:35:02;;;;;;;2.80;1.47;;;;;;;;;;7371191;19;20642;-60
2023/01/27 21:37:27;;;;;;;1.53;1.43;;;;;;;;;;7374721;19;20185;-60
2023/01/27 21:39:53;;;;;;;0.83;0.83;;;;;;;;;;7366874;19;20496;-59
2023/01/27 21:45:11;;;;;;;1.33;1.20;;;;;;;;;;7376137;19;20232;-59
2023/01/27 21:47:36;;;;;;;1.10;0.90;;;;;;;;;;7385977;19;20136;-59
2023/01/27 21:50:03;;;;;;;0.53;0.53;;;;;;;;;;7380660;19;20124;-59
2023/01/27 21:52:36;;;;;;;1.50;1.17;;;;;;;;;;7390345;19;20458;-60
2023/01/27 21:55:04;;;;;;;0.70;0.70;;;;;;;;;;7388839;19;20141;-59
2023/01/27 21:57:29;;;;;;;0.50;0.50;;;;;;;;;;7392526;19;20156;-59
2023/01/27 21:59:55;;;;;;;2.00;0.90;;;;;;;;;;7386874;19;20587;-59
2023/01/27 22:02:20;;;;;;;1.27;1.17;;;;;;;;;;7393996;19;20845;-59
2023/01/27 22:04:45;;;;;;;0.87;0.87;;;;;;;;;;7388323;19;20148;-59
2023/01/27 22:07:12;;;;;;;0.67;0.67;;;;;;;;;;7392361;19;20209;-60
2023/01/27 22:09:38;;;;;;;1.00;1.00;;;;;;;;;;7389817;19;20141;-60
2023/01/27 22:12:05;;;;;;;0.97;0.97;;;;;;;;;;7387153;19;20137;-60
2023/01/27 22:14:31;;;;;;;0.73;0.73;;;;;;;;;;7386759;19;20166;-60
2023/01/27 22:16:56;;;;;;;2.30;2.10;;;;;;;;;;7394072;19;20121;-59
2023/01/27 22:19:21;;;;;;;2.40;0.90;;;;;;;;;;7393308;19;20129;-59
2023/01/27 22:21:47;;;;;;;0.50;0.50;;;;;;;;;;7387787;19;20171;-59
2023/01/27 22:24:12;;;;;;;0.63;0.63;;;;;;;;;;7388700;19;20474;-59
2023/01/27 22:26:37;;;;;;;0.67;0.67;;;;;;;;;;7394663;19;20125;-59
2023/01/27 22:29:03;;;;;;;1.50;1.33;;;;;;;;;;7383898;19;20144;-60
2023/01/27 22:31:28;;;;;;;1.10;1.10;;;;;;;;;;7389855;19;20117;-59
2023/01/27 22:33:53;;;;;;;1.43;1.17;;;;;;;;;;7378252;19;20189;-59
2023/01/27 22:36:19;;;;;;;2.30;1.77;;;;;;;;;;7390715;19;20192;-60
2023/01/27 22:38:44;;;;;;;2.33;2.00;;;;;;;;;;7379998;19;20134;-60
2023/01/27 22:41:09;;;;;;;1.30;1.20;;;;;;;;;;7391200;19;20156;-59
2023/01/27 22:43:35;;;;;;;3.20;1.73;;;;;;;;;;7390837;19;20614;-60
2023/01/27 22:46:01;;;;;;;1.33;1.23;;;;;;;;;;7392732;19;20149;-59
2023/01/27 22:48:27;;;;;;;0.90;0.90;;;;;;;;;;7387069;19;20117;-59
2023/01/27 22:50:52;;;;;;;1.07;1.07;;;;;;;;;;7388808;19;20132;-59
2023/01/27 22:53:17;;;;;;;2.33;1.43;;;;;;;;;;7391273;19;20125;-59
2023/01/27 22:55:42;;;;;;;1.17;1.07;;;;;;;;;;7388842;19;20240;-59
2023/01/27 22:58:08;;;;;;;2.07;1.60;;;;;;;;;;7389100;19;20151;-59
2023/01/27 23:00:33;;;;;;;1.33;1.23;;;;;;;;;;7380443;19;20121;-60
2023/01/27 23:03:00;;;;;;;1.23;1.20;;;;;;;;;;7389860;19;20137;-60
2023/01/27 23:05:25;;;;;;;1.47;1.37;;;;;;;;;;7389504;19;20532;-60
2023/01/27 23:07:50;;;;;;;1.27;0.97;;;;;;;;;;7387800;19;20133;-59
2023/01/27 23:10:16;;;;;;;1.77;1.20;;;;;;;;;;7369218;19;20164;-59
2023/01/27 23:12:41;;;;;;;1.33;1.07;;;;;;;;;;7371633;19;20117;-60
2023/01/27 23:15:07;;;;;;;0.93;0.93;;;;;;;;;;7374638;19;20145;-60
2023/01/27 23:17:32;;;;;;;1.93;1.13;;;;;;;;;;7369303;19;20120;-59
2023/01/27 23:19:57;;;;;;;1.60;1.50;;;;;;;;;;7378455;19;20121;-59
2023/01/27 23:22:23;;;;;;;0.97;0.97;;;;;;;;;;7378568;19;20479;-60
2023/01/27 23:24:48;;;;;;;1.30;1.20;;;;;;;;;;7375124;19;20161;-59
2023/01/27 23:27:13;;;;;;;1.43;1.33;;;;;;;;;;7370988;19;20489;-59
2023/01/27 23:29:38;;;;;;;1.47;0.97;;;;;;;;;;7378705;19;20210;-59
2023/01/27 23:32:04;;;;;;;1.80;0.87;;;;;;;;;;7377126;19;20121;-60
2023/01/27 23:34:30;;;;;;;1.03;1.03;;;;;;;;;;7372972;19;20731;-60
2023/01/27 23:36:55;;;;;;;4.10;1.63;;;;;;;;;;7385422;19;20117;-59
2023/01/27 23:39:20;;;;;;;1.00;1.00;;;;;;;;;;7388431;19;20121;-59
2023/01/27 23:41:46;;;;;;;1.07;0.97;;;;;;;;;;7389206;19;20144;-60
2023/01/27 23:44:11;;;;;;;4.30;1.90;;;;;;;;;;7386041;19;20141;-59
2023/01/27 23:46:37;;;;;;;1.27;1.10;;;;;;;;;;7388152;19;20145;-59
2023/01/27 23:49:02;;;;;;;3.63;1.93;;;;;;;;;;7386623;19;20149;-60
2023/01/27 23:51:27;;;;;;;2.23;1.20;;;;;;;;;;7381193;19;20133;-60
2023/01/27 23:53:53;;;;;;;1.00;0.87;;;;;;;;;;7385796;19;20156;-60
2023/01/27 23:56:19;;;;;;;1.63;1.53;;;;;;;;;;7388821;19;20491;-60
2023/01/27 23:58:45;;;;;;;1.50;1.40;;;;;;;;;;7386363;19;20492;-59
